createdAt,value
2019-05-14T00:00:53.687Z,36.01
2019-05-14T00:03:26.091Z,36.20
2019-05-14T00:05:57.751Z,36.37
2019-05-14T00:08:31.496Z,36.52
2019-05-14T00:11:03.187Z,36.68
2019-05-14T00:13:34.811Z,36.78
2019-05-14T00:16:07.060Z,36.85
2019-05-14T00:18:38.660Z,36.97
2019-05-14T00:21:12.172Z,37.17
2019-05-14T00:23:43.925Z,37.30
2019-05-14T00:26:15.590Z,37.41
2019-05-14T00:28:47.184Z,37.52
2019-05-14T00:31:21.193Z,37.64
2019-05-14T00:33:52.469Z,37.85
2019-05-14T00:36:24.453Z,37.91
2019-05-14T00:38:56.082Z,38.03
2019-05-14T00:41:27.848Z,38.20
2019-05-14T00:44:01.800Z,38.39
2019-05-14T00:46:33.076Z,38.62
2019-05-14T00:49:05.356Z,38.84
2019-05-14T00:51:37.924Z,39.02
2019-05-14T00:54:11.170Z,39.20
2019-05-14T00:56:42.975Z,39.43
2019-05-14T00:59:14.668Z,39.55
2019-05-14T01:01:46.255Z,39.57
2019-05-14T01:04:19.457Z,39.55
2019-05-14T01:06:51.622Z,39.60
2019-05-14T01:09:23.288Z,39.69
2019-05-14T01:11:55.075Z,39.70
2019-05-14T01:14:26.789Z,39.80
2019-05-14T01:16:58.710Z,39.78
2019-05-14T01:19:31.535Z,39.84
2019-05-14T01:22:04.457Z,39.87
2019-05-14T01:24:36.310Z,39.90
2019-05-14T01:27:08.602Z,39.96
2019-05-14T01:29:42.440Z,39.98
2019-05-14T01:32:13.900Z,40.03
2019-05-14T01:34:45.542Z,40.08
2019-05-14T01:37:17.549Z,40.17
2019-05-14T01:39:49.143Z,40.32
2019-05-14T01:42:21.640Z,40.33
2019-05-14T01:44:53.356Z,40.34
2019-05-14T01:47:25.031Z,40.33
2019-05-14T01:49:56.823Z,40.28
2019-05-14T01:52:28.809Z,40.23
2019-05-14T01:55:02.123Z,40.19
2019-05-14T01:57:34.176Z,40.19
2019-05-14T02:00:07.066Z,40.26
2019-05-14T02:02:38.645Z,40.31
2019-05-14T02:05:12.449Z,40.28
2019-05-14T02:07:44.189Z,40.34
2019-05-14T02:10:16.070Z,40.42
2019-05-14T02:12:47.661Z,40.44
2019-05-14T02:15:21.250Z,40.49
2019-05-14T02:17:52.740Z,40.56
2019-05-14T02:20:24.381Z,40.61
2019-05-14T02:22:56.444Z,40.66
2019-05-14T02:25:28.113Z,40.72
2019-05-14T02:28:01.346Z,40.81
2019-05-14T02:30:46.702Z,40.90
2019-05-14T02:33:09.119Z,40.94
2019-05-14T02:35:40.476Z,41.04
2019-05-14T02:38:12.599Z,41.09
2019-05-14T02:40:44.562Z,41.09
2019-05-14T02:43:19.612Z,41.06
2019-05-14T02:46:04.792Z,41.08
2019-05-14T02:48:23.015Z,41.06
2019-05-14T02:50:54.646Z,41.03
2019-05-14T02:53:29.388Z,41.06
2019-05-14T02:56:01.928Z,41.08
2019-05-14T02:58:33.719Z,41.08
2019-05-14T03:01:05.576Z,41.16
2019-05-14T03:03:40.134Z,41.24
2019-05-14T03:06:10.823Z,41.32
2019-05-14T03:08:42.584Z,41.38
2019-05-14T03:11:14.282Z,41.48
2019-05-14T03:13:49.488Z,41.67
2019-05-14T03:16:29.345Z,41.92
2019-05-14T03:18:53.524Z,42.09
2019-05-14T03:21:25.185Z,42.12
2019-05-14T03:24:00.460Z,42.17
2019-05-14T03:26:30.153Z,42.27
2019-05-14T03:29:02.930Z,42.29
2019-05-14T03:31:34.571Z,42.56
2019-05-14T03:34:12.690Z,42.72
2019-05-14T03:36:43.022Z,42.79
2019-05-14T03:39:14.153Z,42.82
2019-05-14T03:41:45.811Z,42.83
2019-05-14T03:44:19.970Z,42.87
2019-05-14T03:46:55.420Z,42.96
2019-05-14T03:49:24.948Z,42.95
2019-05-14T03:52:00.067Z,42.98
2019-05-14T03:54:30.206Z,42.96
2019-05-14T03:57:02.154Z,42.96
2019-05-14T03:59:34.525Z,42.94
2019-05-14T04:02:09.517Z,42.90
2019-05-14T04:04:39.896Z,42.82
2019-05-14T04:07:13.187Z,42.79
2019-05-14T04:09:49.327Z,42.81
2019-05-14T04:12:21.965Z,42.80
2019-05-14T04:14:55.305Z,42.88
2019-05-14T04:17:37.155Z,42.96
2019-05-14T04:20:02.316Z,43.01
2019-05-14T04:22:35.081Z,43.06
2019-05-14T04:25:11.175Z,43.10
2019-05-14T04:27:44.904Z,43.16
2019-05-14T04:30:23.570Z,43.18
2019-05-14T04:32:51.833Z,43.25
2019-05-14T04:35:23.540Z,43.39
2019-05-14T04:37:58.705Z,43.54
2019-05-14T04:40:29.800Z,43.64
2019-05-14T04:43:01.776Z,43.80
2019-05-14T04:45:33.470Z,43.94
2019-05-14T04:48:24.086Z,44.00
2019-05-14T04:50:40.491Z,44.01
2019-05-14T04:53:12.349Z,44.00
2019-05-14T04:55:43.996Z,44.12
2019-05-14T04:58:16.240Z,44.23
2019-05-14T05:00:49.911Z,44.31
2019-05-14T05:03:21.849Z,44.43
2019-05-14T05:05:54.222Z,44.48
2019-05-14T05:08:26.192Z,44.57
2019-05-14T05:10:59.986Z,44.57
2019-05-14T05:13:31.276Z,44.71
2019-05-14T05:16:02.898Z,44.82
2019-05-14T05:18:35.394Z,44.97
2019-05-14T05:21:08.760Z,45.06
2019-05-14T05:23:40.543Z,45.09
2019-05-14T05:26:12.151Z,45.09
2019-05-14T05:28:43.832Z,45.13
2019-05-14T05:31:15.523Z,45.10
2019-05-14T05:33:49.056Z,45.11
2019-05-14T05:36:20.883Z,45.17
2019-05-14T05:38:52.871Z,45.25
2019-05-14T05:41:24.581Z,45.25
2019-05-14T05:43:58.699Z,45.35
2019-05-14T05:46:29.512Z,45.51
2019-05-14T05:49:01.558Z,45.66
2019-05-14T05:51:33.344Z,45.79
2019-05-14T05:54:04.971Z,45.79
2019-05-14T05:56:38.747Z,45.76
2019-05-14T05:59:10.281Z,45.77
2019-05-14T06:01:46.299Z,45.61
2019-05-14T06:04:18.242Z,45.48
2019-05-14T06:06:49.556Z,45.45
2019-05-14T06:09:21.564Z,45.36
2019-05-14T06:11:53.194Z,45.23
2019-05-14T06:14:24.845Z,45.11
2019-05-14T06:16:58.915Z,45.01
2019-05-14T06:19:31.004Z,44.90
2019-05-14T06:22:04.324Z,44.99
2019-05-14T06:24:38.771Z,45.08
2019-05-14T06:27:09.768Z,45.21
2019-05-14T06:29:41.530Z,45.29
2019-05-14T06:32:13.128Z,45.30
2019-05-14T06:34:45.605Z,45.15
2019-05-14T06:37:19.205Z,44.91
2019-05-14T06:39:50.586Z,44.83
2019-05-14T06:42:22.343Z,44.67
2019-05-14T06:44:53.997Z,44.43
2019-05-14T06:47:25.679Z,44.29
2019-05-14T06:49:59.290Z,44.15
2019-05-14T06:52:30.923Z,44.05
2019-05-14T06:55:02.890Z,43.84
2019-05-14T06:57:34.511Z,43.65
2019-05-14T07:00:08.301Z,43.53
2019-05-14T07:02:43.679Z,43.38
2019-05-14T07:05:13.635Z,43.21
2019-05-14T07:07:45.270Z,43.01
2019-05-14T07:10:19.452Z,42.90
2019-05-14T07:12:50.273Z,42.77
2019-05-14T07:15:22.159Z,42.50
2019-05-14T07:17:54.011Z,42.10
2019-05-14T07:20:28.180Z,41.85
2019-05-14T07:23:00.327Z,41.63
2019-05-14T07:25:31.969Z,41.29
2019-05-14T07:28:03.887Z,41.24
2019-05-14T07:30:35.511Z,41.03
2019-05-14T07:33:09.401Z,40.94
2019-05-14T07:35:40.771Z,40.85
2019-05-14T07:38:12.449Z,40.55
2019-05-14T07:40:44.815Z,40.39
2019-05-14T07:43:18.761Z,40.17
2019-05-14T07:45:50.022Z,40.09
2019-05-14T07:48:21.648Z,39.81
2019-05-14T07:50:53.265Z,39.47
2019-05-14T07:53:36.331Z,39.44
2019-05-14T07:55:59.140Z,39.31
2019-05-14T07:58:31.112Z,39.24
2019-05-14T08:01:02.761Z,39.03
2019-05-14T08:03:34.432Z,38.91
2019-05-14T08:06:08.186Z,38.73
2019-05-14T08:08:39.481Z,38.59
2019-05-14T08:11:11.227Z,38.56
2019-05-14T08:13:42.960Z,38.34
2019-05-14T08:16:14.575Z,38.21
2019-05-14T08:18:48.753Z,37.96
2019-05-14T08:21:20.303Z,37.81
2019-05-14T08:23:52.222Z,37.61
2019-05-14T08:26:23.865Z,37.41
2019-05-14T08:28:55.499Z,37.29
2019-05-14T08:31:29.274Z,37.19
2019-05-14T08:34:04.648Z,37.00
2019-05-14T08:36:34.216Z,37.04
2019-05-14T08:39:08.780Z,37.08
2019-05-14T08:41:40.749Z,36.99
2019-05-14T08:44:12.394Z,36.84
2019-05-14T08:46:45.254Z,36.64
2019-05-14T08:49:18.444Z,36.57
2019-05-14T08:51:50.198Z,36.35
2019-05-14T08:54:21.967Z,36.46
2019-05-14T08:56:53.889Z,36.33
2019-05-14T08:59:28.738Z,36.11
2019-05-14T09:02:06.387Z,36.16
2019-05-14T09:04:34.209Z,36.03
2019-05-14T09:07:05.923Z,35.96
2019-05-14T09:09:38.234Z,35.96
2019-05-14T09:12:12.564Z,35.89
2019-05-14T09:14:43.474Z,35.76
2019-05-14T09:17:15.169Z,35.73
2019-05-14T09:20:01.184Z,35.60
2019-05-14T09:22:20.564Z,35.49
2019-05-14T09:24:52.465Z,35.47
2019-05-14T09:27:24.455Z,35.27
2019-05-14T09:29:58.812Z,35.30
2019-05-14T09:32:29.555Z,35.30
2019-05-14T09:35:01.326Z,35.15
2019-05-14T09:37:32.960Z,35.03
2019-05-14T09:40:04.817Z,35.05
2019-05-14T09:42:38.999Z,34.93
2019-05-14T09:45:11.640Z,34.82
2019-05-14T09:47:49.803Z,34.73
2019-05-14T09:50:22.813Z,34.65
2019-05-14T09:52:51.843Z,34.45
2019-05-14T09:55:23.560Z,34.42
2019-05-14T09:57:55.534Z,34.28
2019-05-14T10:00:27.276Z,34.16
2019-05-14T10:02:59.804Z,34.13
2019-05-14T10:05:31.588Z,33.97
2019-05-14T10:08:03.191Z,33.96
2019-05-14T10:10:34.897Z,33.76
2019-05-14T10:13:09.495Z,33.74
2019-05-14T10:15:40.211Z,33.74
2019-05-14T10:18:12.668Z,33.37
2019-05-14T10:20:46.043Z,33.37
2019-05-14T10:23:18.905Z,33.14
2019-05-14T10:25:50.807Z,32.95
2019-05-14T10:28:22.839Z,33.03
2019-05-14T10:30:54.775Z,32.40
2019-05-14T10:33:28.594Z,32.60
2019-05-14T10:35:59.861Z,32.07
2019-05-14T10:38:31.496Z,32.51
2019-05-14T10:41:03.574Z,32.40
2019-05-14T10:43:35.821Z,31.88
2019-05-14T10:46:09.144Z,31.81
2019-05-14T10:48:40.929Z,31.46
2019-05-14T10:51:12.621Z,30.85
2019-05-14T10:53:44.331Z,31.03
2019-05-14T10:56:18.774Z,31.24
2019-05-14T10:58:49.487Z,30.41
2019-05-14T11:01:22.733Z,30.63
2019-05-14T11:03:54.806Z,30.99
2019-05-14T11:06:29.101Z,30.93
2019-05-14T11:09:00.281Z,30.54
2019-05-14T11:11:32.327Z,29.60
2019-05-14T11:14:03.951Z,30.32
2019-05-14T11:16:35.651Z,30.15
2019-05-14T11:19:09.349Z,30.04
2019-05-14T11:21:41.389Z,30.07
2019-05-14T11:24:13.450Z,30.04
2019-05-14T11:26:45.418Z,30.10
2019-05-14T11:29:18.608Z,29.87
2019-05-14T11:31:50.535Z,29.78
2019-05-14T11:34:22.520Z,29.79
2019-05-14T11:36:54.187Z,29.70
2019-05-14T11:39:28.623Z,29.66
2019-05-14T11:41:59.587Z,29.59
2019-05-14T11:44:31.295Z,29.74
2019-05-14T11:47:03.216Z,29.50
2019-05-14T11:49:34.952Z,29.56
2019-05-14T11:52:11.069Z,29.31
2019-05-14T11:54:41.091Z,29.35
2019-05-14T11:57:13.124Z,29.50
2019-05-14T11:59:44.947Z,29.16
2019-05-14T12:02:18.834Z,29.31
2019-05-14T12:04:50.219Z,29.37
2019-05-14T12:07:21.869Z,29.22
2019-05-14T12:09:53.682Z,29.02
2019-05-14T12:12:25.328Z,28.87
2019-05-14T12:14:58.234Z,28.86
2019-05-14T12:17:29.994Z,28.93
2019-05-14T12:20:01.717Z,28.73
2019-05-14T12:22:33.479Z,28.53
2019-05-14T12:25:08.176Z,28.51
2019-05-14T12:27:41.990Z,28.33
2019-05-14T12:30:14.421Z,28.45
2019-05-14T12:32:46.104Z,28.48
2019-05-14T12:35:19.827Z,28.34
2019-05-14T12:37:52.105Z,28.23
2019-05-14T12:40:23.853Z,28.18
2019-05-14T12:42:58.577Z,28.50
2019-05-14T12:45:30.053Z,28.17
2019-05-14T12:48:01.823Z,28.11
2019-05-14T12:50:33.482Z,28.08
2019-05-14T12:53:05.110Z,27.99
2019-05-14T12:55:39.797Z,28.08
2019-05-14T12:58:10.785Z,28.03
2019-05-14T13:00:42.977Z,27.96
2019-05-14T13:03:14.588Z,28.06
2019-05-14T13:05:48.917Z,27.80
2019-05-14T13:08:19.578Z,27.78
2019-05-14T13:10:51.225Z,27.70
2019-05-14T13:13:23.021Z,27.68
2019-05-14T13:15:55.143Z,27.76
2019-05-14T13:18:29.051Z,27.45
2019-05-14T13:21:00.571Z,27.58
2019-05-14T13:23:32.454Z,27.38
2019-05-14T13:26:04.409Z,27.60
2019-05-14T13:28:36.102Z,27.62
2019-05-14T13:31:08.863Z,27.43
2019-05-14T13:33:40.674Z,27.55
2019-05-14T13:36:12.461Z,27.32
2019-05-14T13:38:44.507Z,27.44
2019-05-14T13:41:16.300Z,27.59
2019-05-14T13:43:50.447Z,27.55
2019-05-14T13:46:21.397Z,27.33
2019-05-14T13:48:53.155Z,27.27
2019-05-14T13:51:24.752Z,27.07
2019-05-14T13:53:58.748Z,27.24
2019-05-14T13:56:29.769Z,27.23
2019-05-14T13:59:01.795Z,26.97
2019-05-14T14:01:33.682Z,27.00
2019-05-14T14:04:11.234Z,27.06
2019-05-14T14:06:39.451Z,26.99
2019-05-14T14:09:12.432Z,26.99
2019-05-14T14:11:44.367Z,26.91
2019-05-14T14:14:16.010Z,27.02
2019-05-14T14:16:48.905Z,27.08
2019-05-14T14:19:20.957Z,27.01
2019-05-14T14:21:53.092Z,26.77
2019-05-14T14:24:24.707Z,26.62
2019-05-14T14:26:58.373Z,26.52
2019-05-14T14:29:29.817Z,26.63
2019-05-14T14:32:01.835Z,26.71
2019-05-14T14:34:33.751Z,26.60
2019-05-14T14:37:08.648Z,26.68
2019-05-14T14:39:39.215Z,26.67
2019-05-14T14:42:11.072Z,26.53
2019-05-14T14:44:42.722Z,26.41
2019-05-14T14:47:14.436Z,26.44
2019-05-14T14:49:51.200Z,26.58
2019-05-14T14:52:20.066Z,26.54
2019-05-14T14:54:51.927Z,26.56
2019-05-14T14:57:22.951Z,26.57
2019-05-14T14:59:56.078Z,26.61
2019-05-14T15:02:28.570Z,26.41
2019-05-14T15:04:59.772Z,26.08
2019-05-14T15:07:31.574Z,26.14
2019-05-14T15:10:03.830Z,26.15
2019-05-14T15:12:38.926Z,26.06
2019-05-14T15:15:09.587Z,26.01
2019-05-14T15:17:41.363Z,26.27
2019-05-14T15:20:13.633Z,26.21
2019-05-14T15:22:48.611Z,26.30
2019-05-14T15:25:19.040Z,26.37
2019-05-14T15:27:50.837Z,26.50
2019-05-14T15:30:23.148Z,26.53
2019-05-14T15:32:55.051Z,26.60
2019-05-14T15:35:28.524Z,26.54
2019-05-14T15:38:00.317Z,26.54
2019-05-14T15:40:32.085Z,26.53
2019-05-14T15:43:03.816Z,26.46
2019-05-14T15:45:37.748Z,26.38
2019-05-14T15:48:09.253Z,26.43
2019-05-14T15:50:41.031Z,26.50
2019-05-14T15:53:12.673Z,26.52
2019-05-14T15:55:45.334Z,26.36
2019-05-14T15:58:21.502Z,26.16
2019-05-14T16:00:50.798Z,26.03
2019-05-14T16:03:22.539Z,25.94
2019-05-14T16:05:54.170Z,25.77
2019-05-14T16:08:25.980Z,25.93
2019-05-14T16:11:00.144Z,25.75
2019-05-14T16:13:31.381Z,25.71
2019-05-14T16:16:03.347Z,25.82
2019-05-14T16:18:35.362Z,25.77
2019-05-14T16:21:07.021Z,25.77
2019-05-14T16:23:38.907Z,25.77
2019-05-14T16:26:11.057Z,25.87
2019-05-14T16:28:42.761Z,25.95
2019-05-14T16:31:14.426Z,25.96
2019-05-14T16:33:48.891Z,25.94
2019-05-14T16:36:19.542Z,25.96
2019-05-14T16:38:51.167Z,25.88
2019-05-14T16:41:22.953Z,25.81
2019-05-14T16:43:55.094Z,25.86
2019-05-14T16:46:28.943Z,25.88
2019-05-14T16:49:00.362Z,25.90
2019-05-14T16:51:32.050Z,25.94
2019-05-14T16:54:03.878Z,26.00
2019-05-14T16:56:35.775Z,26.08
2019-05-14T16:59:09.057Z,26.10
2019-05-14T17:01:41.011Z,26.12
2019-05-14T17:04:12.766Z,26.27
2019-05-14T17:06:44.545Z,26.37
2019-05-14T17:09:18.610Z,26.44
2019-05-14T17:11:49.873Z,26.48
2019-05-14T17:14:21.793Z,26.47
2019-05-14T17:16:53.533Z,26.52
2019-05-14T17:19:25.260Z,26.47
2019-05-14T17:21:59.382Z,26.39
2019-05-14T17:24:30.763Z,26.35
2019-05-14T17:27:02.546Z,26.49
2019-05-14T17:29:34.323Z,26.56
2019-05-14T17:32:06.044Z,26.60
2019-05-14T17:34:38.663Z,26.65
2019-05-14T17:37:11.111Z,26.64
2019-05-14T17:39:42.830Z,26.67
2019-05-14T17:42:14.535Z,26.79
2019-05-14T17:44:48.242Z,26.81
2019-05-14T17:47:19.858Z,26.76
2019-05-14T17:49:52.075Z,26.66
2019-05-14T17:52:23.734Z,26.69
2019-05-14T17:54:55.410Z,26.67
2019-05-14T17:57:34.254Z,26.65
2019-05-14T18:00:01.625Z,26.61
2019-05-14T18:02:33.341Z,26.60
2019-05-14T18:05:05.583Z,26.64
2019-05-14T18:07:37.340Z,26.68
2019-05-14T18:10:09.995Z,26.77
2019-05-14T18:12:41.705Z,26.79
2019-05-14T18:15:13.595Z,26.83
2019-05-14T18:17:45.420Z,26.94
2019-05-14T18:20:17.865Z,27.00
2019-05-14T18:22:49.802Z,27.05
2019-05-14T18:25:21.497Z,27.08
2019-05-14T18:27:53.263Z,27.11
2019-05-14T18:30:25.257Z,27.18
2019-05-14T18:32:58.444Z,27.24
2019-05-14T18:35:30.234Z,27.30
2019-05-14T18:38:01.979Z,27.39
2019-05-14T18:40:33.762Z,27.44
2019-05-14T18:43:08.475Z,27.51
2019-05-14T18:45:39.535Z,27.58
2019-05-14T18:48:11.288Z,27.65
2019-05-14T18:50:43.040Z,27.73
2019-05-14T18:53:14.810Z,27.77
2019-05-14T18:55:48.810Z,27.86
2019-05-14T18:58:20.255Z,27.91
2019-05-14T19:00:52.360Z,27.94
2019-05-14T19:03:24.308Z,28.02
2019-05-14T19:05:58.493Z,28.10
2019-05-14T19:08:29.759Z,28.12
2019-05-14T19:11:01.526Z,28.21
2019-05-14T19:13:33.257Z,28.23
2019-05-14T19:16:08.350Z,28.27
2019-05-14T19:18:40.531Z,28.37
2019-05-14T19:21:12.294Z,28.45
2019-05-14T19:23:45.338Z,28.57
2019-05-14T19:26:31.586Z,28.63
2019-05-14T19:28:50.918Z,28.74
2019-05-14T19:31:22.907Z,28.78
2019-05-14T19:33:54.879Z,28.82
2019-05-14T19:36:28.132Z,28.95
2019-05-14T19:39:00.058Z,28.99
2019-05-14T19:41:31.908Z,29.09
2019-05-14T19:44:03.663Z,29.19
2019-05-14T19:46:38.438Z,29.28
2019-05-14T19:49:09.532Z,29.36
2019-05-14T19:51:41.747Z,29.40
2019-05-14T19:54:13.785Z,29.43
2019-05-14T19:56:55.548Z,29.49
2019-05-14T19:59:19.454Z,29.55
2019-05-14T20:01:51.263Z,29.64
2019-05-14T20:04:23.393Z,29.69
2019-05-14T20:06:55.158Z,29.76
2019-05-14T20:09:28.110Z,29.77
2019-05-14T20:11:59.926Z,29.80
2019-05-14T20:14:31.942Z,29.86
2019-05-14T20:17:03.666Z,29.91
2019-05-14T20:19:35.569Z,29.98
2019-05-14T20:22:07.306Z,30.02
2019-05-14T20:24:41.630Z,30.05
2019-05-14T20:27:12.607Z,30.11
2019-05-14T20:29:44.369Z,30.16
2019-05-14T20:32:16.041Z,30.22
2019-05-14T20:34:48.689Z,30.25
2019-05-14T20:37:20.560Z,30.30
2019-05-14T20:39:52.542Z,30.37
2019-05-14T20:42:24.209Z,30.41
2019-05-14T20:44:56.051Z,30.45
2019-05-14T20:47:28.231Z,30.51
2019-05-14T20:50:00.026Z,30.57
2019-05-14T20:52:32.174Z,30.59
2019-05-14T20:55:03.893Z,30.64
2019-05-14T20:57:38.017Z,30.72
2019-05-14T21:00:11.791Z,30.86
2019-05-14T21:02:43.700Z,30.88
2019-05-14T21:05:15.516Z,30.96
2019-05-14T21:07:49.355Z,31.05
2019-05-14T21:10:20.661Z,31.13
2019-05-14T21:12:52.399Z,31.18
2019-05-14T21:15:24.144Z,31.36
2019-05-14T21:17:55.950Z,31.49
2019-05-14T21:20:28.406Z,31.53
2019-05-14T21:23:00.118Z,31.70
2019-05-14T21:25:31.898Z,31.77
2019-05-14T21:28:03.523Z,31.89
2019-05-14T21:30:35.430Z,31.97
2019-05-14T21:33:08.559Z,32.04
2019-05-14T21:35:40.778Z,32.13
2019-05-14T21:38:12.470Z,32.18
2019-05-14T21:40:44.195Z,32.21
2019-05-14T21:43:18.382Z,32.33
2019-05-14T21:45:49.505Z,32.38
2019-05-14T21:48:21.588Z,32.55
2019-05-14T21:50:53.534Z,32.61
2019-05-14T21:53:25.126Z,32.73
2019-05-14T21:55:58.691Z,32.80
2019-05-14T21:58:30.349Z,32.81
2019-05-14T22:01:03.245Z,32.90
2019-05-14T22:03:34.840Z,32.98
2019-05-14T22:06:08.785Z,32.98
2019-05-14T22:08:39.924Z,33.11
2019-05-14T22:11:11.679Z,33.29
2019-05-14T22:13:43.652Z,33.31
2019-05-14T22:16:15.287Z,33.37
2019-05-14T22:18:48.351Z,33.43
2019-05-14T22:21:20.355Z,33.52
2019-05-14T22:23:52.086Z,33.51
2019-05-14T22:26:23.635Z,33.60
2019-05-14T22:28:55.364Z,33.69
2019-05-14T22:31:28.942Z,33.73
2019-05-14T22:34:00.308Z,33.80
2019-05-14T22:36:32.203Z,33.87
2019-05-14T22:39:05.605Z,33.88
2019-05-14T22:41:38.244Z,33.96
2019-05-14T22:44:10.020Z,33.99
2019-05-14T22:46:41.637Z,34.04
2019-05-14T22:49:13.233Z,34.11
2019-05-14T22:51:45.169Z,34.16
2019-05-14T22:59:20.787Z,34.46
2019-05-14T23:01:52.613Z,34.56
2019-05-14T23:04:24.356Z,34.67
2019-05-14T23:06:58.524Z,34.77
2019-05-14T23:09:29.398Z,34.82
2019-05-14T23:12:01.251Z,34.89
2019-05-14T23:14:33.224Z,34.96
2019-05-14T23:17:04.915Z,35.02
2019-05-14T23:19:36.808Z,35.00
2019-05-14T23:22:08.531Z,35.12
2019-05-14T23:24:40.132Z,35.10
2019-05-14T23:27:11.725Z,35.21
2019-05-14T23:29:43.488Z,35.33
2019-05-14T23:32:15.193Z,35.82
2019-05-14T23:34:48.815Z,36.19
2019-05-14T23:37:20.264Z,36.42
2019-05-14T23:39:52.201Z,36.62
2019-05-14T23:42:23.780Z,36.74
2019-05-14T23:44:55.439Z,36.84
2019-05-14T23:47:28.963Z,37.02
2019-05-14T23:50:00.755Z,37.07
2019-05-14T23:52:32.586Z,37.19
2019-05-14T23:55:04.238Z,37.32
2019-05-14T23:57:35.890Z,37.50
